createdAt,value
2022-11-13T00:02:38.155Z,48.33
2022-11-13T00:07:42.051Z,49.53
2022-11-13T00:12:45.972Z,46.27
2022-11-13T00:17:49.841Z,46.50
2022-11-13T00:22:53.494Z,46.10
2022-11-13T00:27:57.323Z,50.27
2022-11-13T05:31:48.582Z,48.77
2022-11-13T05:36:51.450Z,60.40
2022-11-13T05:41:54.508Z,52.57
2022-11-13T05:46:57.384Z,59.07
2022-11-13T05:52:00.281Z,54.23
2022-11-13T05:57:03.200Z,47.43
2022-11-13T06:02:06.285Z,48.00
2022-11-13T06:07:09.323Z,41.33
2022-11-13T06:12:12.183Z,44.70
2022-11-13T06:17:15.070Z,40.57
2022-11-13T06:22:18.061Z,40.50
2022-11-13T06:27:20.946Z,42.17
2022-11-13T06:32:25.972Z,39.10
2022-11-13T06:37:33.686Z,33.43
2022-11-13T06:42:37.585Z,41.97
2022-11-13T06:47:40.445Z,45.07
2022-11-13T06:52:43.378Z,36.50
2022-11-13T06:57:46.218Z,43.50
2022-11-13T07:02:52.154Z,36.53
2022-11-13T07:07:54.967Z,41.10
2022-11-13T07:13:00.390Z,34.83
2022-11-13T07:18:04.289Z,37.80
2022-11-13T07:23:07.138Z,45.67
2022-11-13T07:28:10.036Z,33.37
2022-11-13T07:33:12.877Z,34.97
2022-11-13T07:38:15.745Z,34.80
2022-11-13T07:43:18.610Z,45.03
2022-11-13T07:48:22.519Z,42.63
2022-11-13T07:53:25.386Z,34.17
2022-11-13T07:58:28.745Z,40.33
2022-11-13T08:03:32.554Z,43.17
2022-11-13T08:08:36.217Z,37.73
2022-11-13T08:13:39.149Z,42.33
2022-11-13T08:18:42.142Z,31.80
2022-11-13T08:23:45.032Z,37.23
2022-11-13T08:28:48.236Z,43.60
2022-11-13T08:33:51.213Z,41.17
2022-11-13T08:38:54.059Z,38.83
2022-11-13T08:43:56.888Z,40.97
2022-11-13T08:48:59.674Z,39.83
2022-11-13T08:54:02.450Z,39.07
2022-11-13T08:59:05.326Z,36.13
2022-11-13T09:04:08.387Z,33.83
2022-11-13T09:09:11.366Z,39.17
2022-11-13T09:14:14.434Z,33.47
2022-11-13T09:19:18.490Z,40.60
2022-11-13T09:24:21.551Z,40.97
2022-11-13T09:29:26.148Z,37.40
2022-11-13T09:34:29.962Z,33.77
2022-11-13T09:39:33.268Z,46.80
2022-11-13T09:44:45.417Z,33.73
2022-11-13T09:49:55.804Z,39.43
2022-11-13T09:55:13.925Z,40.30
2022-11-13T10:00:26.839Z,36.37
2022-11-13T10:05:53.971Z,38.07
2022-11-13T10:11:43.922Z,37.17
2022-11-13T10:17:02.256Z,42.63
2022-11-13T10:22:32.711Z,44.97
2022-11-13T10:27:36.231Z,47.87
2022-11-13T10:32:39.149Z,46.60
2022-11-13T10:38:25.169Z,45.30
2022-11-13T10:43:28.525Z,48.70
2022-11-13T10:48:37.114Z,44.03
2022-11-13T10:53:42.266Z,40.27
2022-11-13T10:58:45.621Z,47.40
2022-11-13T11:03:50.792Z,49.13
2022-11-13T11:09:04.870Z,41.13
2022-11-13T11:14:30.957Z,49.70
2022-11-13T11:26:42.565Z,41.73
2022-11-13T11:32:00.442Z,52.90
2022-11-13T11:37:22.079Z,55.30
2022-11-13T11:43:13.908Z,55.77
2022-11-13T11:48:26.876Z,54.73
2022-11-13T11:53:50.327Z,44.63
2022-11-13T11:59:18.929Z,43.40
2022-11-13T12:04:34.870Z,46.23
2022-11-13T12:10:00.389Z,47.27
2022-11-13T12:15:21.927Z,49.30
2022-11-13T12:20:52.562Z,44.20
2022-11-13T12:26:02.926Z,46.50
2022-11-13T12:31:43.402Z,39.07
2022-11-13T12:36:46.386Z,45.93
2022-11-13T12:42:16.962Z,47.20
2022-11-13T12:47:22.478Z,46.03
2022-11-13T12:52:25.319Z,46.10
2022-11-13T12:57:30.646Z,47.93
2022-11-13T13:02:55.597Z,48.67
2022-11-13T13:08:40.068Z,48.33
2022-11-13T13:14:24.141Z,44.60
2022-11-13T13:19:31.471Z,45.50
2022-11-13T13:24:38.196Z,48.03
2022-11-13T13:29:41.610Z,43.27
2022-11-13T13:35:09.836Z,41.63
2022-11-13T13:40:28.147Z,48.80
2022-11-13T13:45:57.020Z,47.77
2022-11-13T13:51:01.479Z,47.27
2022-11-13T13:56:05.273Z,49.30
2022-11-13T14:01:34.090Z,47.50
2022-11-13T14:06:37.043Z,48.43
2022-11-13T14:11:40.188Z,45.13
2022-11-13T14:16:51.374Z,47.03
2022-11-13T14:22:03.834Z,49.33
2022-11-13T14:27:13.068Z,58.50
2022-11-13T14:32:25.713Z,51.13
2022-11-13T14:37:38.219Z,47.80
2022-11-13T14:42:46.976Z,46.40
2022-11-13T14:47:59.521Z,54.73
2022-11-13T14:53:08.223Z,54.87
2022-11-13T14:58:14.161Z,63.60
2022-11-13T15:03:20.135Z,50.83
2022-11-13T15:08:30.346Z,60.53
2022-11-13T15:13:35.066Z,57.40
2022-11-13T15:18:37.884Z,64.80
2022-11-13T15:24:53.915Z,55.10
2022-11-13T15:30:12.271Z,60.37
2022-11-13T15:35:18.942Z,67.70
2022-11-13T15:40:42.765Z,60.03
2022-11-13T15:47:11.679Z,59.50
2022-11-13T15:52:18.890Z,63.87
2022-11-13T15:58:17.290Z,62.07
2022-11-13T16:10:12.615Z,69.60
2022-11-13T16:15:52.153Z,67.50
2022-11-13T16:21:16.105Z,65.50
2022-11-13T16:26:34.058Z,51.50
2022-11-13T16:31:39.183Z,60.77
2022-11-13T16:36:46.633Z,63.83
2022-11-13T16:42:01.731Z,63.57
2022-11-13T16:47:17.892Z,59.23
2022-11-13T16:52:39.144Z,59.60
2022-11-13T16:58:10.596Z,65.37
2022-11-13T17:03:24.379Z,69.17
2022-11-13T17:08:27.889Z,69.27
2022-11-13T17:13:37.111Z,75.13
2022-11-13T17:18:45.840Z,73.13
2022-11-13T17:24:17.113Z,75.13
2022-11-13T17:29:27.335Z,70.23
2022-11-13T17:34:46.752Z,79.53
2022-11-13T17:40:08.664Z,75.90
2022-11-13T17:51:12.272Z,55.67
2022-11-13T17:56:20.141Z,54.37
2022-11-13T18:01:23.674Z,61.53
2022-11-13T18:06:31.167Z,57.60
2022-11-13T18:11:47.654Z,57.00
2022-11-13T18:17:23.483Z,49.13
2022-11-13T18:22:46.169Z,53.10
2022-11-13T18:28:15.641Z,44.40
2022-11-13T18:34:20.978Z,54.87
2022-11-13T18:39:47.471Z,61.97
2022-11-13T18:45:46.748Z,57.87
2022-11-13T18:51:48.983Z,57.27
2022-11-13T19:03:18.523Z,72.53
2022-11-13T19:09:26.318Z,55.80
2022-11-13T19:15:14.813Z,45.60
2022-11-13T19:20:43.737Z,52.47
2022-11-13T19:26:09.493Z,56.07
2022-11-13T19:31:56.359Z,54.97
2022-11-13T19:38:19.133Z,56.33
2022-11-13T19:44:05.327Z,66.17
2022-11-13T19:49:31.804Z,67.03
2022-11-13T19:55:13.026Z,61.07
2022-11-13T20:01:02.476Z,64.07
2022-11-13T20:06:40.480Z,59.97
2022-11-13T20:12:29.474Z,72.73
2022-11-13T20:18:01.737Z,58.30
2022-11-13T20:23:34.703Z,67.23
2022-11-13T20:29:04.469Z,53.73
2022-11-13T20:34:55.986Z,49.57
2022-11-13T20:40:35.888Z,44.97
2022-11-13T20:46:30.040Z,49.57
2022-11-13T20:51:57.504Z,49.93
2022-11-13T20:57:24.780Z,50.67
2022-11-13T21:03:09.567Z,54.83
2022-11-13T21:08:51.690Z,58.37
2022-11-13T21:14:56.439Z,46.33
2022-11-13T21:20:42.042Z,45.07
2022-11-13T21:26:05.620Z,42.50
2022-11-13T21:31:22.253Z,42.47
2022-11-13T21:36:51.289Z,37.70
2022-11-13T21:42:27.194Z,44.80
2022-11-13T21:47:52.473Z,52.07
2022-11-13T21:53:18.428Z,47.97
2022-11-13T21:59:03.527Z,51.50
2022-11-13T22:04:17.880Z,59.37
2022-11-13T22:10:08.289Z,53.80
2022-11-13T22:15:20.703Z,57.07
2022-11-13T22:20:23.834Z,56.53
2022-11-13T22:25:37.081Z,51.23
2022-11-13T22:30:45.337Z,59.80
2022-11-13T22:35:51.674Z,50.73
2022-11-13T22:41:06.645Z,45.67
2022-11-13T22:46:20.100Z,45.97
2022-11-13T22:51:32.138Z,37.30
2022-11-13T22:56:50.888Z,36.37
2022-11-13T23:02:07.846Z,40.77
2022-11-13T23:07:36.105Z,40.10
2022-11-13T23:13:08.606Z,38.30
2022-11-13T23:18:34.363Z,31.20
2022-11-13T23:23:52.217Z,34.67
2022-11-13T23:29:28.104Z,38.73
2022-11-13T23:35:02.649Z,37.10
2022-11-13T23:40:24.284Z,38.53
2022-11-13T23:45:50.788Z,32.27
2022-11-13T23:51:04.668Z,40.97
2022-11-13T23:56:34.293Z,31.27
